Terminal Aerodrome Forecast
Issued by NWS Sioux Falls, SD

Home | Current Version | Previous Version | Text Only | Print | Product List | Glossary On
Versions: 1 2 3 4 5 6 7 8 9 10 11 12 13 14 15 16 17 18
000
FTUS43 KFSD 250201 AAA
TAFFSD
TAF AMD
KFSD 250201Z 2502/2524 17008KT 6SM BR OVC006
     FM251100 31015G22KT P6SM SCT025
     FM251400 32020G30KT P6SM BKN025
     FM251800 32020G30KT P6SM BKN035=

USA.gov is the U.S. government's official web portal to all federal, state and local government web resources and services.